Sun Prairie, Wisconsin
Current Conditions -  °F | °C
As of 10:19 AM on Monday 24 Nov 2014 (Local Time) from KMSN Reporting Station
Light Snow Light Snow  
Wind Chill: 28°   Ceiling: 1200
Heat Index: 36°   Visibility: 5mi
Dew Point: 34°   Wind: 10mph
Humidity: 93%   Direction: 280°W
Pressure: 29.19"   Gusts: NA
Location:  43.18°N, 89.21°W
Report Text: KMSN 241619Z 28009KT 5SM -RASN BR SCT008 OVC012 02/01 A2919 RMK AO2 SNB18 P0001 T00220011
Loading
Personal Weather Stations






























Interactive Weather Map New forecast layout! Learn more

10-Day Weather Forecast

Advertisements
Track Severe Weather on mobile